Time;durP1;ratioP1;P1;durP2;ratioP2;P2;SDS_P1;SDS_P2;PMS_P1;PMS_P2;Temp;Humidity;BMP_temperature;BMP_pressure;BME280_temperature;BME280_humidity;BME280_pressure;Samples;Min_cycle;Max_cycle;Signal;HPM_P1;HPM_P2
2022/07/03 00:00:44;;;;;;;4.68;2.55;;;17.10;99.90;;;;;;5050724;28;20082;-54
2022/07/03 00:03:09;;;;;;;3.85;2.45;;;17.00;99.90;;;;;;5050761;28;20021;-54
2022/07/03 00:05:35;;;;;;;8.30;2.53;;;16.90;99.90;;;;;;5050684;28;20029;-53
2022/07/03 00:08:03;;;;;;;5.55;2.75;;;16.70;99.90;;;;;;5050503;28;20044;-54
2022/07/03 00:10:32;;;;;;;5.78;3.53;;;16.70;99.90;;;;;;5049973;28;20678;-55
2022/07/03 00:12:58;;;;;;;6.53;2.88;;;16.60;99.90;;;;;;5050671;28;20044;-55
2022/07/03 00:15:23;;;;;;;3.25;2.95;;;16.60;99.90;;;;;;5051056;28;20029;-55
2022/07/03 00:17:49;;;;;;;6.13;3.03;;;16.60;99.90;;;;;;5054135;28;20056;-53
2022/07/03 00:20:15;;;;;;;4.25;3.60;;;16.60;99.90;;;;;;5054367;28;20029;-53
2022/07/03 00:22:43;;;;;;;3.08;2.78;;;16.60;99.90;;;;;;5054263;28;20025;-52
2022/07/03 00:25:12;;;;;;;3.00;2.80;;;16.50;99.90;;;;;;5054103;28;20044;-51
2022/07/03 00:27:39;;;;;;;3.40;3.10;;;16.30;99.90;;;;;;5053789;28;20035;-52
2022/07/03 00:30:07;;;;;;;7.78;3.08;;;16.30;99.90;;;;;;5054388;28;20028;-50
2022/07/03 00:32:37;;;;;;;3.40;2.80;;;16.30;99.90;;;;;;5053521;28;20029;-51
2022/07/03 00:35:03;;;;;;;4.75;3.53;;;16.20;99.90;;;;;;5053880;28;20098;-50
2022/07/03 00:37:29;;;;;;;6.00;3.35;;;16.20;99.90;;;;;;5053561;28;20041;-51
2022/07/03 00:39:57;;;;;;;4.47;3.60;;;16.30;99.90;;;;;;5053977;28;20021;-52
2022/07/03 00:42:22;;;;;;;5.65;3.17;;;16.20;99.90;;;;;;5053988;28;20430;-53
2022/07/03 00:44:49;;;;;;;8.38;3.30;;;16.20;99.90;;;;;;5053855;28;20031;-49
2022/07/03 00:47:18;;;;;;;5.97;3.75;;;16.20;99.90;;;;;;5053778;28;20108;-50
2022/07/03 00:49:46;;;;;;;5.45;3.03;;;16.10;99.90;;;;;;5054077;28;20029;-53
2022/07/03 00:52:13;;;;;;;4.80;3.75;;;16.10;99.90;;;;;;5053746;28;20381;-50
2022/07/03 00:54:44;;;;;;;4.30;3.17;;;16.10;99.90;;;;;;5053830;28;20446;-52
2022/07/03 00:57:14;;;;;;;4.90;3.25;;;16.10;99.90;;;;;;5053820;28;20024;-55
2022/07/03 00:59:42;;;;;;;5.45;3.30;;;16.10;99.90;;;;;;5053166;28;20381;-54
2022/07/03 01:02:11;;;;;;;6.93;3.08;;;16.00;99.90;;;;;;5053786;28;20155;-54
2022/07/03 01:04:39;;;;;;;3.35;3.05;;;16.00;99.90;;;;;;5035360;28;20408;-54
2022/07/03 01:07:06;;;;;;;9.27;3.60;;;16.00;99.90;;;;;;5053393;28;20103;-51
2022/07/03 01:09:56;;;;;;;8.32;3.63;;;16.00;99.90;;;;;;5052876;28;20025;-51
2022/07/03 01:12:46;;;;;;;3.30;2.95;;;15.80;99.90;;;;;;5053590;28;20116;-53
2022/07/03 01:15:39;;;;;;;9.13;3.88;;;15.80;99.90;;;;;;5053369;28;20021;-52
2022/07/03 01:18:23;;;;;;;8.77;3.72;;;15.80;99.90;;;;;;5053479;28;20025;-53
2022/07/03 01:21:15;;;;;;;4.45;4.07;;;15.70;99.90;;;;;;5053261;28;20425;-50
2022/07/03 01:24:00;;;;;;;6.55;3.95;;;15.60;99.90;;;;;;5052998;28;20028;-50
2022/07/03 01:26:30;;;;;;;7.20;4.00;;;15.60;99.90;;;;;;5052811;28;20029;-52
2022/07/03 01:29:00;;;;;;;3.92;3.63;;;15.60;99.90;;;;;;5034731;28;20041;-50
2022/07/03 01:31:28;;;;;;;4.28;3.38;;;15.60;99.90;;;;;;5052759;28;20107;-49
2022/07/03 01:33:54;;;;;;;6.13;3.75;;;15.60;99.90;;;;;;5052948;28;20656;-52
2022/07/03 01:36:23;;;;;;;4.43;4.00;;;15.40;99.90;;;;;;5034225;28;20126;-51
2022/07/03 01:38:50;;;;;;;10.25;4.03;;;15.40;99.90;;;;;;5053033;28;20088;-50
2022/07/03 01:41:16;;;;;;;7.30;3.67;;;15.40;99.90;;;;;;5052767;28;20029;-53
2022/07/03 01:43:47;;;;;;;5.28;4.57;;;15.30;99.90;;;;;;5052712;28;20025;-50
2022/07/03 01:46:17;;;;;;;4.55;3.70;;;15.20;99.90;;;;;;5052561;28;20071;-54
2022/07/03 01:48:44;;;;;;;9.38;3.72;;;15.10;99.90;;;;;;5053118;28;20051;-50
2022/07/03 01:51:14;;;;;;;5.30;4.47;;;15.00;99.90;;;;;;5052559;28;20040;-50
2022/07/03 01:53:46;;;;;;;6.88;4.43;;;15.00;99.90;;;;;;5052522;28;20029;-53
2022/07/03 01:56:12;;;;;;;6.05;4.00;;;15.00;99.90;;;;;;5052949;28;20368;-51
2022/07/03 01:58:38;;;;;;;5.97;4.78;;;15.00;99.90;;;;;;5052279;28;20025;-54
2022/07/03 02:01:18;;;;;;;6.68;3.75;;;14.90;99.90;;;;;;5034554;28;20021;-51
2022/07/03 02:04:04;;;;;;;5.20;3.95;;;14.90;99.90;;;;;;5052168;28;20494;-54
2022/07/03 02:06:55;;;;;;;4.65;4.05;;;14.70;99.90;;;;;;5052286;28;20112;-53
2022/07/03 02:09:28;;;;;;;6.88;4.10;;;14.70;99.90;;;;;;5051751;28;20043;-52
2022/07/03 02:11:59;;;;;;;7.22;3.42;;;14.70;99.90;;;;;;5052313;28;20045;-49
2022/07/03 02:14:32;;;;;;;4.40;3.78;;;14.70;99.90;;;;;;5052135;28;20682;-53
2022/07/03 02:17:16;;;;;;;11.68;4.43;;;14.60;99.90;;;;;;5052276;28;20488;-52
2022/07/03 02:19:55;;;;;;;7.47;4.88;;;14.50;99.90;;;;;;5052066;28;20091;-52
2022/07/03 02:22:27;;;;;;;9.07;4.55;;;14.40;99.90;;;;;;5034398;28;20136;-51
2022/07/03 02:24:56;;;;;;;10.77;4.20;;;14.40;99.90;;;;;;5052205;28;20025;-50
2022/07/03 02:27:25;;;;;;;5.10;4.45;;;14.30;99.90;;;;;;5051672;28;20713;-49
2022/07/03 02:30:04;;;;;;;6.75;3.83;;;14.40;99.90;;;;;;5052109;28;20112;-53
2022/07/03 02:32:35;;;;;;;10.23;3.85;;;14.30;99.90;;;;;;5051318;28;20380;-55
2022/07/03 02:35:11;;;;;;;6.63;4.35;;;14.20;99.90;;;;;;5051778;28;20036;-54
2022/07/03 02:37:53;;;;;;;8.93;4.68;;;14.20;99.90;;;;;;5051162;28;20400;-51
2022/07/03 02:40:31;;;;;;;8.25;4.53;;;14.20;99.90;;;;;;5051117;28;20033;-52
2022/07/03 02:43:11;;;;;;;4.80;4.40;;;14.10;99.90;;;;;;5051718;28;20702;-52
2022/07/03 02:46:48;;;;;;;8.70;4.50;;;14.00;99.90;;;;;;5051404;28;20037;-54
2022/07/03 02:49:00;;;;;;;8.35;4.30;;;14.00;99.90;;;;;;5031781;28;20033;-51
2022/07/03 02:51:34;;;;;;;10.00;4.75;;;14.00;99.90;;;;;;5038548;28;20412;-53
2022/07/03 02:54:30;;;;;;;6.37;4.20;;;13.90;99.90;;;;;;5051826;28;20012;-51
2022/07/03 02:57:07;;;;;;;4.95;4.45;;;13.90;99.90;;;;;;5050409;28;20452;-53
2022/07/03 03:00:01;;;;;;;6.10;4.50;;;13.90;99.90;;;;;;5051252;28;20399;-50
2022/07/03 03:02:45;;;;;;;;;;;13.80;99.90;;;;;;5051590;28;20472;-51
2022/07/03 03:05:21;;;;;;;12.90;4.93;;;13.80;99.90;;;;;;5051199;28;19912;-54
2022/07/03 03:08:12;;;;;;;6.25;4.65;;;13.70;99.90;;;;;;5050884;28;20082;-50
2022/07/03 03:10:39;;;;;;;12.75;4.72;;;13.70;99.90;;;;;;5050842;28;20520;-50
2022/07/03 03:13:10;;;;;;;4.40;4.00;;;13.70;99.90;;;;;;5050972;28;20039;-51
2022/07/03 03:15:37;;;;;;;7.88;4.82;;;13.70;99.90;;;;;;5051341;28;20039;-51
2022/07/03 03:18:07;;;;;;;8.90;5.00;;;13.80;99.90;;;;;;5051286;28;20060;-51
2022/07/03 03:20:38;;;;;;;8.98;4.43;;;13.70;99.90;;;;;;5032329;28;20029;-51
2022/07/03 03:23:15;;;;;;;17.58;4.70;;;13.80;99.90;;;;;;5032434;28;20119;-52
2022/07/03 03:25:41;;;;;;;11.70;5.43;;;13.80;99.90;;;;;;5050523;28;20021;-50
2022/07/03 03:28:07;;;;;;;8.98;4.88;;;13.80;99.90;;;;;;5050240;28;20028;-49
2022/07/03 03:30:34;;;;;;;14.23;4.25;;;13.80;99.90;;;;;;5050232;28;20033;-51
2022/07/03 03:33:00;;;;;;;4.60;4.10;;;13.80;99.90;;;;;;5049839;28;20071;-53
2022/07/03 03:35:26;;;;;;;5.32;4.25;;;13.80;99.90;;;;;;5050088;28;20049;-54
2022/07/03 03:37:51;;;;;;;6.32;4.47;;;13.90;99.90;;;;;;5050565;28;20048;-53
2022/07/03 03:40:17;;;;;;;10.02;4.80;;;13.90;99.90;;;;;;5050231;28;20070;-54
2022/07/03 03:42:43;;;;;;;8.23;4.22;;;13.90;99.90;;;;;;5050078;28;20492;-53
2022/07/03 03:45:09;;;;;;;9.48;4.03;;;13.80;99.90;;;;;;5050439;28;20036;-52
2022/07/03 03:47:35;;;;;;;5.78;4.50;;;13.80;99.90;;;;;;5050254;28;20527;-51
2022/07/03 03:50:02;;;;;;;6.35;5.22;;;13.90;99.90;;;;;;5050379;28;20163;-50
2022/07/03 03:52:29;;;;;;;7.88;4.47;;;13.80;99.90;;;;;;5053767;28;20040;-54
2022/07/03 03:54:55;;;;;;;9.00;4.82;;;13.90;99.90;;;;;;5036438;28;20368;-54
2022/07/03 03:57:25;;;;;;;11.10;4.43;;;14.00;99.90;;;;;;5053691;28;20033;-51
2022/07/03 03:59:51;;;;;;;6.18;4.30;;;14.00;99.90;;;;;;5054041;28;20092;-55
2022/07/03 04:02:18;;;;;;;6.60;5.90;;;14.00;99.90;;;;;;5050204;28;20021;-54
2022/07/03 04:04:44;;;;;;;11.77;5.95;;;14.10;99.90;;;;;;5034856;28;20037;-54
2022/07/03 04:07:10;;;;;;;9.73;4.28;;;14.10;99.90;;;;;;5034893;28;20021;-54
2022/07/03 04:09:36;;;;;;;10.65;4.45;;;14.20;99.90;;;;;;5034720;28;20029;-52
2022/07/03 04:12:02;;;;;;;10.50;4.95;;;14.30;99.90;;;;;;5034613;28;20112;-55
2022/07/03 04:14:28;;;;;;;12.60;4.88;;;14.40;99.90;;;;;;5053333;28;20037;-51
2022/07/03 04:16:53;;;;;;;6.90;4.55;;;14.50;99.90;;;;;;5036345;28;20047;-53
2022/07/03 04:19:19;;;;;;;11.90;4.53;;;14.60;99.90;;;;;;5053969;28;20041;-54
2022/07/03 04:21:45;;;;;;;16.50;4.65;;;14.70;99.90;;;;;;5054117;28;20036;-54
2022/07/03 04:24:10;;;;;;;5.43;4.55;;;14.80;99.90;;;;;;5054225;28;20535;-51
2022/07/03 04:26:36;;;;;;;5.70;4.90;;;14.80;99.90;;;;;;5053960;28;20496;-52
2022/07/03 04:29:02;;;;;;;6.82;5.25;;;14.90;99.90;;;;;;5053349;28;20533;-51
2022/07/03 04:31:27;;;;;;;5.38;4.65;;;15.00;99.90;;;;;;5052670;28;20488;-51
2022/07/03 04:33:53;;;;;;;5.10;4.50;;;15.30;99.90;;;;;;5052743;28;20017;-53
2022/07/03 04:36:18;;;;;;;7.47;4.00;;;15.30;99.90;;;;;;5052768;28;20044;-54
2022/07/03 04:38:44;;;;;;;5.75;4.70;;;15.40;99.90;;;;;;5052671;28;20032;-52
2022/07/03 04:41:10;;;;;;;6.35;4.88;;;15.50;99.90;;;;;;5052729;28;20108;-51
2022/07/03 04:43:38;;;;;;;4.40;4.00;;;15.70;99.90;;;;;;5052830;28;20657;-53
2022/07/03 04:46:04;;;;;;;5.05;4.55;;;15.90;99.90;;;;;;5052701;28;20120;-54
2022/07/03 04:48:31;;;;;;;7.30;4.32;;;15.90;99.90;;;;;;5052721;28;20037;-54
2022/07/03 04:50:58;;;;;;;5.53;3.90;;;16.10;99.90;;;;;;5052672;28;20025;-55
2022/07/03 04:53:24;;;;;;;4.97;4.22;;;16.30;99.90;;;;;;5052582;28;20055;-52
2022/07/03 04:55:50;;;;;;;4.22;3.85;;;16.50;99.90;;;;;;5052635;28;20029;-51
2022/07/03 04:58:17;;;;;;;4.18;3.78;;;16.60;99.90;;;;;;5052833;28;20032;-55
2022/07/03 05:00:43;;;;;;;4.47;4.13;;;16.60;99.90;;;;;;5052360;28;20065;-53
2022/07/03 05:03:09;;;;;;;5.40;4.10;;;16.60;99.90;;;;;;5051913;28;20257;-52
2022/07/03 05:05:35;;;;;;;6.32;3.78;;;16.70;99.90;;;;;;5052178;28;20060;-51
2022/07/03 05:08:00;;;;;;;24.63;4.30;;;16.60;99.90;;;;;;5052011;28;20025;-52
2022/07/03 05:10:26;;;;;;;6.57;4.85;;;16.70;99.90;;;;;;5052182;28;20060;-53
2022/07/03 05:12:52;;;;;;;4.47;4.00;;;16.80;99.90;;;;;;5052156;28;20086;-52
2022/07/03 05:15:18;;;;;;;5.97;4.30;;;16.90;99.90;;;;;;5052177;28;20025;-55
2022/07/03 05:17:44;;;;;;;16.50;4.82;;;17.00;99.90;;;;;;5052000;28;20035;-51
2022/07/03 05:20:27;;;;;;;8.43;4.82;;;17.00;99.90;;;;;;5052001;28;20036;-53
2022/07/03 05:23:01;;;;;;;4.47;4.07;;;17.10;99.90;;;;;;5051985;28;20025;-53
2022/07/03 05:25:28;;;;;;;6.25;4.40;;;17.20;99.90;;;;;;5052079;28;20124;-53
2022/07/03 05:27:54;;;;;;;5.72;4.15;;;17.20;99.90;;;;;;5051940;28;20067;-53
2022/07/03 05:30:22;;;;;;;5.18;4.32;;;17.30;99.90;;;;;;5051735;28;20033;-50
2022/07/03 05:32:48;;;;;;;6.55;4.82;;;17.40;99.90;;;;;;5051776;28;20013;-51
2022/07/03 05:35:14;;;;;;;5.57;4.40;;;17.60;99.90;;;;;;5033692;28;20033;-52
2022/07/03 05:37:40;;;;;;;5.43;4.40;;;17.70;99.90;;;;;;5033485;28;20102;-50
2022/07/03 05:40:07;;;;;;;4.45;4.07;;;17.90;99.90;;;;;;5052141;28;20096;-51
2022/07/03 05:42:33;;;;;;;4.32;3.85;;;18.10;99.90;;;;;;5051550;28;20252;-50
2022/07/03 05:44:59;;;;;;;4.30;3.85;;;18.20;99.90;;;;;;5051474;28;20077;-54
2022/07/03 05:47:25;;;;;;;5.97;3.80;;;18.50;99.90;;;;;;5051434;28;20025;-54
2022/07/03 05:49:51;;;;;;;5.90;4.82;;;18.80;99.90;;;;;;5033403;28;20021;-53
2022/07/03 05:52:17;;;;;;;7.95;3.80;;;18.90;99.90;;;;;;5051531;28;20020;-53
2022/07/03 05:54:43;;;;;;;6.95;3.80;;;19.10;99.90;;;;;;5051465;28;20396;-52
2022/07/03 05:57:09;;;;;;;7.45;3.50;;;19.30;99.90;;;;;;5051212;28;20033;-51
2022/07/03 05:59:34;;;;;;;3.80;3.38;;;19.50;99.90;;;;;;5051471;28;20040;-54
2022/07/03 06:02:00;;;;;;;4.82;3.83;;;19.60;99.90;;;;;;5050514;28;20029;-51
2022/07/03 06:04:26;;;;;;;4.15;3.75;;;19.60;99.90;;;;;;5050711;28;20025;-53
2022/07/03 06:06:52;;;;;;;10.65;3.58;;;19.70;99.90;;;;;;5051156;28;20033;-52
2022/07/03 06:09:18;;;;;;;4.00;3.60;;;19.70;99.90;;;;;;5050861;28;20737;-55
2022/07/03 06:11:43;;;;;;;6.88;3.35;;;19.70;99.90;;;;;;5052080;28;20029;-51
2022/07/03 06:14:09;;;;;;;3.88;3.35;;;19.90;99.90;;;;;;5049900;28;20534;-55
2022/07/03 06:16:35;;;;;;;4.93;3.60;;;20.10;99.90;;;;;;5058921;28;20089;-54
2022/07/03 06:19:00;;;;;;;4.90;3.53;;;20.20;99.90;;;;;;5062487;28;20039;-54
2022/07/03 06:21:26;;;;;;;4.97;3.55;;;20.30;99.90;;;;;;5050493;28;20034;-52
2022/07/03 06:23:52;;;;;;;7.15;3.50;;;20.50;99.90;;;;;;5047718;28;20060;-53
2022/07/03 06:26:18;;;;;;;5.80;3.80;;;20.50;99.90;;;;;;5051005;28;20392;-50
2022/07/03 06:28:44;;;;;;;5.53;3.25;;;20.40;99.90;;;;;;5050739;28;20060;-54
2022/07/03 06:31:10;;;;;;;3.78;3.38;;;20.40;99.90;;;;;;5051100;28;20032;-53
2022/07/03 06:33:36;;;;;;;7.72;4.22;;;20.40;99.90;;;;;;5050102;28;20031;-54
2022/07/03 06:36:01;;;;;;;6.43;3.35;;;20.20;99.90;;;;;;5050691;28;20427;-53
2022/07/03 06:38:27;;;;;;;4.30;3.75;;;20.10;99.90;;;;;;5050762;28;20047;-55
2022/07/03 06:40:53;;;;;;;5.57;3.60;;;20.30;99.90;;;;;;5050590;28;20070;-54
2022/07/03 06:43:18;;;;;;;5.57;3.67;;;20.50;99.90;;;;;;5050780;28;20033;-53
2022/07/03 06:45:44;;;;;;;3.80;3.50;;;20.60;99.90;;;;;;5050510;28;20021;-53
2022/07/03 06:48:09;;;;;;;6.90;3.50;;;20.60;99.90;;;;;;5050710;28;20099;-51
2022/07/03 06:50:35;;;;;;;4.18;3.40;;;20.40;99.90;;;;;;5050382;28;20045;-53
2022/07/03 06:53:01;;;;;;;5.72;3.45;;;20.50;99.90;;;;;;5050998;28;20024;-52
2022/07/03 06:55:27;;;;;;;4.40;3.40;;;20.70;99.90;;;;;;5050384;28;20464;-55
2022/07/03 06:57:53;;;;;;;3.65;3.33;;;20.80;99.90;;;;;;5032504;28;20050;-52
2022/07/03 07:00:18;;;;;;;3.85;3.10;;;20.90;99.90;;;;;;5050412;28;20378;-55
2022/07/03 07:02:44;;;;;;;4.18;3.25;;;20.90;99.90;;;;;;5050304;28;20048;-55
2022/07/03 07:05:10;;;;;;;7.15;3.55;;;20.80;99.90;;;;;;5050544;28;20037;-52
2022/07/03 07:07:36;;;;;;;9.43;3.70;;;20.80;99.90;;;;;;5050165;28;20025;-53
2022/07/03 07:10:02;;;;;;;4.47;3.30;;;20.60;99.90;;;;;;5050521;28;20048;-54
2022/07/03 07:12:28;;;;;;;4.75;3.25;;;20.80;99.90;;;;;;5050046;28;20025;-53
2022/07/03 07:14:53;;;;;;;4.15;3.53;;;20.90;99.90;;;;;;5050379;28;20058;-54
2022/07/03 07:17:19;;;;;;;3.95;3.40;;;21.10;99.90;;;;;;5031451;28;20532;-55
2022/07/03 07:19:44;;;;;;;7.65;3.00;;;21.20;99.90;;;;;;5030482;28;20075;-53
2022/07/03 07:22:10;;;;;;;5.95;3.47;;;21.40;99.90;;;;;;5034527;28;20103;-54
2022/07/03 07:24:36;;;;;;;3.20;2.90;;;21.40;99.90;;;;;;5049757;28;20363;-54
2022/07/03 07:27:02;;;;;;;2.90;2.70;;;21.50;99.90;;;;;;5049843;28;20024;-54
2022/07/03 07:29:33;;;;;;;4.28;2.92;;;21.30;99.90;;;;;;5049897;28;20083;-54
2022/07/03 07:31:59;;;;;;;3.92;3.17;;;21.40;99.90;;;;;;5050066;28;20507;-54
2022/07/03 07:34:25;;;;;;;7.68;3.10;;;21.40;99.90;;;;;;5049852;28;20020;-54
2022/07/03 07:36:51;;;;;;;3.72;3.00;;;21.60;99.90;;;;;;5049746;28;20053;-53
2022/07/03 07:39:16;;;;;;;3.53;2.17;;;21.60;99.90;;;;;;5032318;28;20028;-52
2022/07/03 07:41:42;;;;;;;3.40;2.88;;;21.70;99.90;;;;;;5050080;28;20464;-51
2022/07/03 07:44:08;;;;;;;5.50;5.00;;;21.80;99.90;;;;;;5049853;28;20032;-54
2022/07/03 07:46:35;;;;;;;3.92;2.97;;;22.00;99.90;;;;;;5049633;28;20057;-56
2022/07/03 07:49:00;;;;;;;2.60;2.40;;;22.10;99.90;;;;;;5049962;28;20013;-51
2022/07/03 07:51:26;;;;;;;5.97;3.13;;;22.20;99.90;;;;;;5033087;28;20025;-55
2022/07/03 07:53:56;;;;;;;3.63;2.60;;;22.30;99.90;;;;;;5049029;28;20053;-54
2022/07/03 07:56:26;;;;;;;3.60;2.78;;;22.50;99.90;;;;;;5041628;28;20064;-53
2022/07/03 07:58:52;;;;;;;7.00;3.88;;;22.50;99.90;;;;;;5049939;28;20056;-56
2022/07/03 08:06:48;;;;;;;5.72;3.08;;;22.60;99.90;;;;;;5054952;28;20028;-56
2022/07/03 08:09:13;;;;;;;4.90;2.25;;;22.70;99.90;;;;;;5068300;28;20017;-56
2022/07/03 08:11:39;;;;;;;8.02;2.50;;;22.70;99.90;;;;;;5031529;28;20029;-52
2022/07/03 08:14:07;;;;;;;4.60;2.95;;;22.80;99.90;;;;;;5049929;28;20017;-55
2022/07/03 08:16:34;;;;;;;3.63;2.67;;;23.20;99.90;;;;;;5049451;28;20070;-55
2022/07/03 08:19:00;;;;;;;2.88;2.53;;;23.40;99.90;;;;;;5048101;28;20020;-56
2022/07/03 08:21:25;;;;;;;2.97;2.47;;;23.60;99.90;;;;;;5049506;28;20021;-54
2022/07/03 08:23:51;;;;;;;4.57;2.38;;;23.60;99.90;;;;;;5049591;28;20017;-55
2022/07/03 08:26:17;;;;;;;2.65;2.40;;;23.80;99.90;;;;;;5049488;28;20437;-55
2022/07/03 08:28:42;;;;;;;5.60;3.13;;;23.90;99.90;;;;;;5049401;28;20476;-55
2022/07/03 08:31:08;;;;;;;2.35;2.15;;;23.90;99.90;;;;;;5049265;28;20036;-52
2022/07/03 08:33:34;;;;;;;3.67;2.78;;;24.00;99.90;;;;;;5049378;28;20067;-54
2022/07/03 08:36:00;;;;;;;3.10;2.78;;;24.10;99.90;;;;;;5031515;28;20131;-52
2022/07/03 08:38:32;;;;;;;5.03;2.75;;;24.10;99.90;;;;;;5052605;28;20036;-53
2022/07/03 08:40:59;;;;;;;2.83;2.47;;;24.40;99.90;;;;;;5035478;28;20031;-52
2022/07/03 08:43:25;;;;;;;3.85;2.75;;;24.60;99.90;;;;;;5052833;28;20064;-55
2022/07/03 08:45:52;;;;;;;6.28;2.47;;;24.70;99.90;;;;;;5052435;28;20064;-52
2022/07/03 08:48:20;;;;;;;3.83;2.50;;;25.00;99.90;;;;;;5053086;28;20452;-53
2022/07/03 08:50:46;;;;;;;3.65;2.33;;;25.40;99.90;;;;;;5052710;28;20111;-56
2022/07/03 08:53:12;;;;;;;7.85;2.78;;;25.60;99.90;;;;;;5052962;28;20495;-53
2022/07/03 08:55:38;;;;;;;3.08;2.78;;;25.60;99.90;;;;;;5052429;28;20061;-54
2022/07/03 08:58:05;;;;;;;4.13;2.58;;;25.40;99.50;;;;;;5052633;28;20029;-52
2022/07/03 09:00:32;;;;;;;3.30;2.92;;;25.50;99.60;;;;;;5051763;28;20025;-55
2022/07/03 09:02:59;;;;;;;4.05;2.72;;;25.30;99.60;;;;;;5052632;28;20056;-50
2022/07/03 09:05:25;;;;;;;3.53;2.60;;;25.30;99.90;;;;;;5052468;28;20028;-55
2022/07/03 09:07:53;;;;;;;4.28;2.80;;;25.30;99.90;;;;;;5052499;28;20048;-54
2022/07/03 09:10:19;;;;;;;5.65;2.25;;;25.60;99.90;;;;;;5052385;28;20409;-56
2022/07/03 09:12:46;;;;;;;14.93;10.65;;;25.90;99.30;;;;;;5052242;28;20045;-53
2022/07/03 09:15:13;;;;;;;4.05;2.83;;;25.90;99.50;;;;;;5052491;28;20111;-53
2022/07/03 09:17:39;;;;;;;2.72;2.00;;;26.10;99.90;;;;;;5052105;28;20033;-51
2022/07/03 09:20:06;;;;;;;5.78;2.03;;;26.30;99.40;;;;;;5052206;28;20059;-52
2022/07/03 09:22:36;;;;;;;3.83;2.53;;;26.40;99.20;;;;;;5051782;28;20446;-52
2022/07/03 09:25:08;;;;;;;3.67;2.25;;;26.60;99.10;;;;;;5051880;28;20523;-51
2022/07/03 09:27:36;;;;;;;2.35;1.90;;;26.70;98.40;;;;;;5052393;28;20480;-55
2022/07/03 09:30:09;;;;;;;2.78;2.03;;;26.60;97.60;;;;;;5052855;28;20352;-50
2022/07/03 09:32:38;;;;;;;;;;;26.60;97.30;;;;;;5052554;28;20412;-53
2022/07/03 09:35:24;;;;;;;3.45;2.05;;;26.50;98.10;;;;;;5052994;28;19909;-53
2022/07/03 09:37:54;;;;;;;6.00;2.10;;;27.00;97.80;;;;;;5052208;28;20036;-53
2022/07/03 09:40:20;;;;;;;2.25;2.00;;;27.40;97.10;;;;;;5051846;28;20029;-54
2022/07/03 09:42:56;;;;;;;3.50;2.80;;;27.50;97.50;;;;;;5051597;28;20587;-57
2022/07/03 09:45:22;;;;;;;2.20;1.17;;;27.50;93.50;;;;;;5051451;28;20020;-51
2022/07/03 09:47:48;;;;;;;2.28;1.42;;;27.60;92.10;;;;;;5051383;28;20025;-52
2022/07/03 09:50:15;;;;;;;1.38;1.20;;;27.60;89.10;;;;;;5052308;28;20029;-56
2022/07/03 09:52:45;;;;;;;6.30;0.95;;;27.70;90.10;;;;;;5052233;28;20111;-51
2022/07/03 09:55:11;;;;;;;4.78;1.40;;;27.80;92.80;;;;;;5052869;28;20036;-53
2022/07/03 09:57:37;;;;;;;1.70;1.17;;;28.10;90.70;;;;;;5045836;28;20038;-54
2022/07/03 10:00:24;;;;;;;8.13;1.50;;;28.00;84.70;;;;;;5023382;28;20044;-54
2022/07/03 10:02:56;;;;;;;1.58;1.02;;;28.10;89.20;;;;;;5021381;28;20038;-52
2022/07/03 10:05:25;;;;;;;1.17;0.90;;;28.00;86.70;;;;;;5021729;28;20038;-54
2022/07/03 10:07:56;;;;;;;2.22;1.08;;;28.10;85.40;;;;;;5021995;28;20092;-53
2022/07/03 10:10:23;;;;;;;3.22;0.80;;;28.10;85.90;;;;;;5021589;28;20060;-56
2022/07/03 10:12:51;;;;;;;2.40;1.25;;;28.20;82.40;;;;;;5021297;28;20040;-53
2022/07/03 10:15:17;;;;;;;1.10;0.98;;;28.10;81.80;;;;;;5021684;28;20033;-53
2022/07/03 10:17:46;;;;;;;2.90;0.95;;;28.00;80.00;;;;;;5021786;28;20115;-51
2022/07/03 10:20:19;;;;;;;2.03;0.93;;;28.30;88.90;;;;;;5021594;28;20047;-54
2022/07/03 10:22:47;;;;;;;4.18;1.00;;;28.60;81.40;;;;;;5020934;28;20033;-55
2022/07/03 10:25:14;;;;;;;1.08;1.00;;;28.40;80.40;;;;;;5021066;28;20817;-55
2022/07/03 10:27:40;;;;;;;2.30;1.10;;;28.10;77.50;;;;;;5021698;28;20048;-51
2022/07/03 10:30:06;;;;;;;3.67;1.00;;;28.30;78.20;;;;;;5021438;28;20059;-53
2022/07/03 10:32:33;;;;;;;1.48;0.85;;;28.70;76.30;;;;;;5020784;28;20232;-52
2022/07/03 10:35:01;;;;;;;3.58;1.23;;;28.90;76.70;;;;;;5022523;28;20065;-54
2022/07/03 10:37:41;;;;;;;4.50;0.85;;;29.10;75.80;;;;;;5021094;28;20045;-53
2022/07/03 10:46:23;;;;;;;1.33;0.93;;;29.80;76.60;;;;;;5021043;28;20056;-55
2022/07/03 10:48:55;;;;;;;7.28;1.27;;;29.70;73.00;;;;;;5021038;28;20049;-52
2022/07/03 10:51:21;;;;;;;5.65;1.27;;;29.60;73.40;;;;;;5020736;28;20030;-53
2022/07/03 10:53:47;;;;;;;1.10;1.00;;;29.90;74.70;;;;;;5020357;28;20048;-51
2022/07/03 10:56:14;;;;;;;1.20;0.90;;;29.80;73.40;;;;;;5003900;28;20369;-51
2022/07/03 10:58:56;;;;;;;5.93;0.90;;;29.70;76.00;;;;;;5022850;28;20571;-55
2022/07/03 11:01:29;;;;;;;4.22;1.13;;;29.90;73.70;;;;;;5040132;28;20025;-55
2022/07/03 11:03:59;;;;;;;1.58;1.10;;;29.90;72.50;;;;;;5025885;28;20029;-52
2022/07/03 11:06:40;;;;;;;1.15;0.93;;;29.90;73.20;;;;;;5020273;28;20041;-52
2022/07/03 11:09:09;;;;;;;2.25;0.90;;;29.80;70.80;;;;;;5040450;28;20025;-52
2022/07/03 11:11:57;;;;;;;1.42;1.17;;;29.90;67.80;;;;;;5026630;28;20420;-54
2022/07/03 11:14:24;;;;;;;1.02;0.88;;;30.20;74.40;;;;;;5023731;28;20163;-56
2022/07/03 11:17:20;;;;;;;3.67;0.77;;;30.10;72.80;;;;;;5023671;28;20160;-54
2022/07/03 11:20:23;;;;;;;2.22;1.00;;;29.80;68.70;;;;;;5024110;28;20117;-56
2022/07/03 11:22:51;;;;;;;2.80;0.70;;;30.20;68.50;;;;;;5022153;28;20044;-56
2022/07/03 11:25:17;;;;;;;1.02;0.93;;;30.10;68.30;;;;;;5021505;28;20029;-52
2022/07/03 11:27:43;;;;;;;1.20;1.10;;;29.90;66.50;;;;;;5027018;28;20029;-53
2022/07/03 11:30:10;;;;;;;1.83;1.13;;;30.10;67.40;;;;;;5021162;28;20033;-53
2022/07/03 11:32:49;;;;;;;1.50;0.70;;;30.10;70.20;;;;;;5025259;28;20179;-56
2022/07/03 11:35:42;;;;;;;0.90;0.90;;;30.20;68.10;;;;;;5022793;28;20083;-53
2022/07/03 11:38:08;;;;;;;0.97;0.77;;;30.10;68.70;;;;;;5021904;28;20162;-53
2022/07/03 11:40:36;;;;;;;1.38;0.65;;;30.10;66.30;;;;;;5021926;28;20354;-53
2022/07/03 11:43:02;;;;;;;0.60;0.60;;;30.30;67.30;;;;;;5023652;28;20481;-52
2022/07/03 11:45:31;;;;;;;2.55;0.98;;;30.60;67.10;;;;;;5021481;28;20036;-51
2022/07/03 11:47:56;;;;;;;0.60;0.60;;;30.50;65.80;;;;;;5022493;28;20021;-53
2022/07/03 11:50:39;;;;;;;9.93;0.98;;;30.80;64.90;;;;;;5022072;28;20500;-52
2022/07/03 11:53:22;;;;;;;0.85;0.80;;;31.10;66.00;;;;;;5017669;28;20085;-52
2022/07/03 11:55:55;;;;;;;2.55;0.68;;;31.30;63.10;;;;;;5021181;28;20045;-53
2022/07/03 11:58:22;;;;;;;1.05;0.80;;;31.20;59.70;;;;;;5020287;28;20045;-52
2022/07/03 12:00:48;;;;;;;0.70;0.57;;;31.10;63.60;;;;;;5018560;28;20052;-53
2022/07/03 12:03:15;;;;;;;2.90;0.82;;;30.90;60.20;;;;;;5019188;28;20022;-54
2022/07/03 12:05:58;;;;;;;1.85;0.70;;;30.70;63.80;;;;;;5022731;28;20688;-54
2022/07/03 12:08:32;;;;;;;0.68;0.65;;;30.50;59.20;;;;;;5030098;28;20021;-55
2022/07/03 12:11:08;;;;;;;2.38;0.60;;;30.60;60.40;;;;;;5028149;28;20025;-55
2022/07/03 12:13:34;;;;;;;1.60;0.60;;;30.30;58.40;;;;;;5032727;28;20029;-54
2022/07/03 12:16:04;;;;;;;2.38;0.88;;;30.60;61.00;;;;;;5033902;28;20109;-52
2022/07/03 12:18:44;;;;;;;0.50;0.50;;;30.80;62.60;;;;;;5034798;28;20490;-52
2022/07/03 12:21:10;;;;;;;3.90;0.70;;;31.10;58.70;;;;;;5051150;28;20021;-54
2022/07/03 12:23:53;;;;;;;0.60;0.60;;;31.70;58.20;;;;;;5053197;28;20297;-51
2022/07/03 12:26:29;;;;;;;;;;;32.00;55.70;;;;;;5053660;28;20431;-56
2022/07/03 12:29:00;;;;;;;0.77;0.70;;;32.90;55.90;;;;;;5039493;28;19908;-54
2022/07/03 12:31:28;;;;;;;0.63;0.60;;;32.70;52.80;;;;;;5053358;28;20013;-54
2022/07/03 12:33:55;;;;;;;1.40;0.70;;;32.60;53.80;;;;;;5053029;28;20096;-51
2022/07/03 12:36:20;;;;;;;0.50;0.47;;;33.60;52.10;;;;;;5052865;28;20052;-55
2022/07/03 12:38:52;;;;;;;0.50;0.40;;;34.20;54.90;;;;;;5053221;28;20094;-55
2022/07/03 12:41:19;;;;;;;0.65;0.50;;;34.60;53.70;;;;;;5035162;28;20025;-54
2022/07/03 12:43:47;;;;;;;1.08;0.75;;;34.90;49.90;;;;;;5053568;28;20135;-55
2022/07/03 12:46:26;;;;;;;4.60;0.75;;;35.20;52.40;;;;;;5054112;28;20543;-55
2022/07/03 12:48:59;;;;;;;2.75;1.45;;;35.60;51.60;;;;;;5052662;28;20021;-56
2022/07/03 12:51:41;;;;;;;0.68;0.52;;;36.30;52.10;;;;;;5034793;28;20021;-57
2022/07/03 12:54:11;;;;;;;1.50;0.50;;;35.60;49.10;;;;;;5053037;28;20468;-53
2022/07/03 12:56:36;;;;;;;3.60;0.50;;;36.80;46.70;;;;;;5052473;28;20024;-54
2022/07/03 12:59:18;;;;;;;2.03;0.65;;;37.00;48.60;;;;;;5052640;28;20021;-56
2022/07/03 13:01:58;;;;;;;0.85;0.65;;;36.90;43.40;;;;;;5050489;28;20045;-55
2022/07/03 13:04:36;;;;;;;5.30;0.52;;;38.00;47.00;;;;;;5047878;28;20403;-55
2022/07/03 13:07:07;;;;;;;1.58;0.68;;;36.30;43.40;;;;;;5051561;28;20483;-52
2022/07/03 13:09:34;;;;;;;1.83;0.80;;;37.70;46.00;;;;;;5031599;28;20029;-52
2022/07/03 13:12:01;;;;;;;1.15;0.70;;;38.50;43.30;;;;;;5033224;28;20393;-57